createdAt,value
2022-08-14T00:00:44.219Z,101041.09
2022-08-14T00:03:21.046Z,101032.91
2022-08-14T00:06:01.824Z,101037.63
2022-08-14T00:08:44.781Z,101037.94
2022-08-14T00:11:17.047Z,101028.88
2022-08-14T00:13:52.502Z,101016.25
2022-08-14T00:16:40.849Z,101014.28
2022-08-14T00:19:21.367Z,101018.44
2022-08-14T00:21:50.991Z,101013.84
2022-08-14T00:24:23.256Z,100998.38
2022-08-14T00:27:02.378Z,101010.00
2022-08-14T00:29:33.002Z,101019.19
2022-08-14T00:32:50.293Z,101008.44
2022-08-14T00:35:02.742Z,101005.88
2022-08-14T00:37:33.278Z,101005.25
2022-08-14T00:40:02.562Z,100997.69
2022-08-14T00:42:55.441Z,100987.78
2022-08-14T00:45:30.452Z,100993.78
2022-08-14T00:48:00.019Z,100989.59
2022-08-14T00:50:31.158Z,100981.66
2022-08-14T00:53:10.570Z,100978.34
2022-08-14T00:55:41.343Z,100979.31
2022-08-14T00:58:27.820Z,100974.66
2022-08-14T01:01:05.053Z,100963.22
2022-08-14T01:03:39.520Z,100966.63
2022-08-14T01:06:12.882Z,100972.81
2022-08-14T01:08:51.726Z,100971.63
2022-08-14T01:11:31.571Z,100974.66
2022-08-14T01:14:04.938Z,100978.22
2022-08-14T01:16:55.601Z,100971.09
2022-08-14T01:19:43.847Z,100970.31
2022-08-14T01:22:18.825Z,100967.91
2022-08-14T01:24:50.986Z,100962.94
2022-08-14T01:27:22.341Z,100966.41
2022-08-14T01:30:03.332Z,100959.44
2022-08-14T01:32:42.462Z,100949.56
2022-08-14T01:35:20.412Z,100944.13
2022-08-14T01:38:01.351Z,100951.50
2022-08-14T01:40:36.238Z,100959.78
2022-08-14T01:43:18.551Z,100955.53
2022-08-14T01:45:57.401Z,100955.50
2022-08-14T01:48:28.579Z,100949.84
2022-08-14T01:51:02.822Z,100946.03
2022-08-14T01:53:35.698Z,100929.38
2022-08-14T01:56:12.068Z,100945.47
2022-08-14T01:58:58.073Z,100941.41
2022-08-14T02:01:29.819Z,100942.06
2022-08-14T02:04:00.751Z,100936.97
2022-08-14T02:06:33.155Z,100936.88
2022-08-14T02:09:19.428Z,100930.22
2022-08-14T02:11:54.389Z,100911.00
2022-08-14T02:14:31.759Z,100883.34
2022-08-14T02:17:01.366Z,100911.22
2022-08-14T02:19:32.621Z,100915.88
2022-08-14T02:22:04.193Z,100915.09
2022-08-14T02:24:40.406Z,100903.00
2022-08-14T02:28:25.072Z,100897.13
2022-08-14T02:30:03.420Z,100900.78
2022-08-14T02:32:36.781Z,100902.56
2022-08-14T02:35:17.800Z,100902.19
2022-08-14T02:37:49.395Z,100895.13
2022-08-14T02:40:32.284Z,100873.03
2022-08-14T02:43:03.446Z,100902.38
2022-08-14T02:45:38.821Z,100896.28
2022-08-14T02:49:03.349Z,100889.75
2022-08-14T02:51:09.128Z,100888.44
2022-08-14T02:53:42.304Z,100895.59
2022-08-14T02:56:30.783Z,100888.31
2022-08-14T02:59:05.680Z,100868.13
2022-08-14T03:01:43.314Z,100882.53
2022-08-14T03:04:13.254Z,100884.19
2022-08-14T03:06:57.667Z,100883.91
2022-08-14T03:10:26.129Z,100878.91
2022-08-14T03:12:31.169Z,100883.34
2022-08-14T03:15:03.344Z,100886.94
2022-08-14T03:17:40.978Z,100886.00
2022-08-14T03:20:23.518Z,100879.13
2022-08-14T03:22:52.578Z,100873.56
2022-08-14T03:25:23.133Z,100876.38
2022-08-14T03:27:58.075Z,100871.94
2022-08-14T03:30:39.657Z,100781.38
2022-08-14T03:33:12.839Z,100873.19
2022-08-14T03:36:00.207Z,100871.53
2022-08-14T03:39:10.783Z,100841.69
2022-08-14T03:41:23.028Z,100867.88
2022-08-14T03:43:57.774Z,100866.78
2022-08-14T03:46:52.359Z,100861.28
2022-08-14T03:49:28.306Z,100844.28
2022-08-14T03:52:00.676Z,100865.25
2022-08-14T03:54:30.171Z,100854.94
2022-08-14T03:57:02.855Z,100859.84
2022-08-14T03:59:36.979Z,100858.56
2022-08-14T04:02:09.607Z,100854.94
2022-08-14T04:05:12.145Z,100853.16
2022-08-14T04:08:00.404Z,100853.94
2022-08-14T04:10:32.692Z,100849.50
2022-08-14T04:13:03.666Z,100856.16
2022-08-14T04:15:55.807Z,100843.50
2022-08-14T04:18:25.985Z,100827.44
2022-08-14T04:20:55.842Z,100851.81
2022-08-14T04:23:29.873Z,100851.03
2022-08-14T04:26:03.403Z,100850.94
2022-08-14T04:29:09.078Z,100852.31
2022-08-14T04:33:02.614Z,100836.41
2022-08-14T04:34:27.137Z,100840.41
2022-08-14T04:37:21.910Z,100840.41
2022-08-14T04:40:11.296Z,100828.75
2022-08-14T04:42:57.697Z,100828.25
2022-08-14T04:45:32.859Z,100819.88
2022-08-14T04:48:40.058Z,100818.25
2022-08-14T04:51:05.504Z,100825.13
2022-08-14T04:53:42.848Z,100823.88
2022-08-14T04:56:30.174Z,100825.50
2022-08-14T04:59:09.937Z,100820.31
2022-08-14T05:01:48.644Z,100813.69
2022-08-14T05:04:21.620Z,100803.16
2022-08-14T05:06:54.368Z,100810.44
2022-08-14T05:09:24.658Z,100806.41
2022-08-14T05:13:11.056Z,100814.13
2022-08-14T05:14:55.143Z,100815.84
2022-08-14T05:17:25.508Z,100810.44
2022-08-14T05:21:54.826Z,100806.75
2022-08-14T05:22:56.067Z,100798.44
2022-08-14T05:25:24.867Z,100796.41
2022-08-14T05:28:00.168Z,100794.03
2022-08-14T05:30:28.726Z,100801.00
2022-08-14T05:32:58.414Z,100791.34
2022-08-14T05:35:28.283Z,100798.53
2022-08-14T05:37:57.006Z,100802.06
2022-08-14T05:40:26.144Z,100700.81
2022-08-14T05:42:54.518Z,100796.03
2022-08-14T05:45:24.835Z,100795.00
2022-08-14T05:47:53.412Z,100784.16
2022-08-14T05:50:21.845Z,100799.94
2022-08-14T05:52:53.153Z,100799.66
2022-08-14T05:55:23.293Z,100789.91
2022-08-14T05:57:54.443Z,100783.41
2022-08-14T06:00:29.242Z,100792.97
2022-08-14T06:03:00.527Z,100804.63
2022-08-14T06:05:33.199Z,100809.00
2022-08-14T06:08:08.795Z,100809.56
2022-08-14T06:10:51.746Z,100803.81
2022-08-14T06:13:20.769Z,100799.00
2022-08-14T06:15:50.682Z,100795.97
2022-08-14T06:18:21.482Z,100779.09
2022-08-14T06:20:54.229Z,100784.50
2022-08-14T06:23:27.409Z,100799.09
2022-08-14T06:25:55.817Z,100804.28
2022-08-14T06:28:28.613Z,100807.38
2022-08-14T06:30:57.688Z,100779.91
2022-08-14T06:33:30.084Z,100802.25
2022-08-14T06:36:14.374Z,100809.06
2022-08-14T06:38:50.403Z,100806.69
2022-08-14T06:41:20.688Z,100801.94
2022-08-14T06:43:49.296Z,100803.72
2022-08-14T06:46:32.569Z,100797.84
2022-08-14T06:49:03.001Z,100749.81
2022-08-14T06:51:44.949Z,100795.22
2022-08-14T06:54:14.767Z,100798.09
2022-08-14T06:56:44.600Z,100792.94
2022-08-14T06:59:22.953Z,100792.16
2022-08-14T07:02:13.504Z,100788.03
2022-08-14T07:05:05.484Z,100783.44
2022-08-14T07:07:39.283Z,100777.81
2022-08-14T07:10:16.762Z,100782.47
2022-08-14T07:13:01.533Z,100771.44
2022-08-14T07:15:34.040Z,100785.09
2022-08-14T07:18:09.447Z,100782.00
2022-08-14T07:20:38.185Z,100780.66
2022-08-14T07:23:11.031Z,100786.50
2022-08-14T07:25:51.938Z,100784.94
2022-08-14T07:28:24.427Z,100772.41
2022-08-14T07:31:05.073Z,100793.06
2022-08-14T07:33:41.992Z,100792.53
2022-08-14T07:36:27.887Z,100792.06
2022-08-14T07:38:59.787Z,100788.25
2022-08-14T07:41:31.282Z,100787.16
2022-08-14T07:44:29.326Z,100794.88
2022-08-14T07:46:51.667Z,100769.97
2022-08-14T07:49:20.239Z,100791.25
2022-08-14T07:51:49.224Z,100783.75
2022-08-14T07:54:23.396Z,100790.00
2022-08-14T07:57:06.634Z,100781.84
2022-08-14T07:59:44.361Z,100773.78
2022-08-14T08:02:19.272Z,100773.44
2022-08-14T08:04:54.205Z,100774.09
2022-08-14T08:07:24.314Z,100773.53
2022-08-14T08:10:02.107Z,100779.38
2022-08-14T08:12:33.266Z,100765.41
2022-08-14T08:15:07.417Z,100761.59
2022-08-14T08:17:53.411Z,100764.78
2022-08-14T08:20:29.349Z,100776.31
2022-08-14T08:23:05.868Z,100762.75
2022-08-14T08:25:39.779Z,100762.56
2022-08-14T08:28:21.935Z,100765.06
2022-08-14T08:30:56.974Z,100766.59
2022-08-14T08:33:32.304Z,100753.09
2022-08-14T08:36:08.409Z,100763.25
2022-08-14T08:39:17.704Z,100759.78
2022-08-14T08:41:41.830Z,100754.66
2022-08-14T08:44:31.165Z,100759.06
2022-08-14T08:47:06.228Z,100754.03
2022-08-14T08:49:58.850Z,100761.44
2022-08-14T08:52:31.275Z,100756.09
2022-08-14T08:55:01.207Z,100760.66
2022-08-14T08:57:37.441Z,100752.16
2022-08-14T09:00:24.333Z,100759.69
2022-08-14T09:02:57.688Z,100752.53
2022-08-14T09:05:27.283Z,100756.00
2022-08-14T09:07:56.378Z,100751.59
2022-08-14T09:10:27.251Z,100748.81
2022-08-14T09:12:57.413Z,100756.41
2022-08-14T09:15:36.686Z,100744.00
2022-08-14T09:18:11.871Z,100749.53
2022-08-14T09:20:41.817Z,100747.75
2022-08-14T09:23:12.272Z,100725.22
2022-08-14T09:25:59.993Z,100742.13
2022-08-14T09:28:34.547Z,100731.16
2022-08-14T09:31:17.385Z,100714.31
2022-08-14T09:34:09.353Z,100422.53
2022-08-14T09:37:18.106Z,100731.34
2022-08-14T09:40:07.440Z,100730.97
2022-08-14T09:42:54.445Z,100617.41
2022-08-14T09:45:40.129Z,100703.72
2022-08-14T09:48:30.022Z,100725.03
2022-08-14T09:54:19.006Z,100694.75
2022-08-14T09:56:43.862Z,100700.44
2022-08-14T09:59:15.962Z,100708.00
2022-08-14T10:01:46.091Z,100704.63
2022-08-14T10:04:34.911Z,100713.41
2022-08-14T10:07:12.436Z,100701.16
2022-08-14T10:09:59.491Z,100702.88
2022-08-14T10:12:50.028Z,100692.34
2022-08-14T10:15:21.890Z,100702.75
2022-08-14T10:18:09.408Z,100698.91
2022-08-14T10:20:48.261Z,100690.59
2022-08-14T10:23:23.184Z,100688.06
2022-08-14T10:25:54.877Z,100691.31
2022-08-14T10:29:03.426Z,100688.84
2022-08-14T10:31:25.323Z,100686.78
2022-08-14T10:34:12.874Z,100683.19
2022-08-14T10:36:49.977Z,100671.94
2022-08-14T10:39:22.413Z,100679.47
2022-08-14T10:42:18.149Z,100674.50
2022-08-14T10:44:52.641Z,100677.84
2022-08-14T10:47:40.379Z,100663.28
2022-08-14T10:50:14.709Z,100663.13
2022-08-14T10:52:46.549Z,100662.97
2022-08-14T10:55:19.479Z,100671.16
2022-08-14T10:57:54.590Z,100669.00
2022-08-14T11:00:30.258Z,100652.69
2022-08-14T11:03:11.084Z,100669.28
2022-08-14T11:05:45.320Z,100652.59
2022-08-14T11:08:19.673Z,100656.94
2022-08-14T11:10:52.883Z,100655.09
2022-08-14T11:13:24.434Z,100647.47
2022-08-14T11:15:54.390Z,100648.78
2022-08-14T11:18:32.324Z,100653.00
2022-08-14T11:21:10.514Z,100652.09
2022-08-14T11:23:41.277Z,100671.78
2022-08-14T11:26:14.070Z,100659.03
2022-08-14T11:28:49.622Z,100650.78
2022-08-14T11:31:23.380Z,100646.09
2022-08-14T11:33:57.971Z,100652.69
2022-08-14T11:36:35.153Z,100631.81
2022-08-14T11:39:34.693Z,100647.50
2022-08-14T11:42:07.665Z,100643.88
2022-08-14T11:45:00.337Z,100636.53
2022-08-14T11:47:35.594Z,100635.50
2022-08-14T11:50:34.118Z,100627.72
2022-08-14T11:53:08.961Z,100630.78
2022-08-14T11:55:40.190Z,100629.31
2022-08-14T11:58:11.308Z,100618.88
2022-08-14T12:00:53.498Z,100619.75
2022-08-14T12:03:27.319Z,100610.13
2022-08-14T12:06:28.959Z,100610.31
2022-08-14T12:09:00.963Z,100608.31
2022-08-14T12:11:43.454Z,100615.47
2022-08-14T12:14:30.143Z,100592.78
2022-08-14T12:17:04.176Z,100603.78
2022-08-14T12:19:34.994Z,100602.13
2022-08-14T12:22:03.672Z,100593.91
2022-08-14T12:24:36.514Z,100600.56
2022-08-14T12:27:07.179Z,100598.84
2022-08-14T12:29:35.633Z,100588.97
2022-08-14T12:32:08.976Z,100580.94
2022-08-14T12:34:44.927Z,100576.44
2022-08-14T12:37:13.657Z,100582.78
2022-08-14T12:39:42.003Z,100592.44
2022-08-14T12:42:27.314Z,100574.63
2022-08-14T12:45:03.881Z,100558.38
2022-08-14T12:47:33.031Z,100575.69
2022-08-14T12:50:02.453Z,100556.38
2022-08-14T12:52:42.995Z,100561.25
2022-08-14T12:55:22.408Z,100557.34
2022-08-14T12:58:05.982Z,100545.66
2022-08-14T13:01:16.004Z,100556.94
2022-08-14T13:03:43.847Z,100552.59
2022-08-14T13:06:15.676Z,100548.59
2022-08-14T13:08:53.260Z,100556.19
2022-08-14T13:11:25.611Z,100530.22
2022-08-14T13:14:00.152Z,100523.53
2022-08-14T13:16:37.950Z,100549.53
2022-08-14T13:19:11.250Z,100536.28
2022-08-14T13:22:05.185Z,100514.00
2022-08-14T13:24:33.659Z,100527.31
2022-08-14T13:27:04.961Z,100530.81
2022-08-14T13:29:43.941Z,100531.34
2022-08-14T13:32:16.502Z,100531.63
2022-08-14T13:34:48.906Z,100529.81
2022-08-14T13:37:21.496Z,100516.06
2022-08-14T13:39:56.812Z,100520.31
2022-08-14T13:42:30.508Z,100515.59
2022-08-14T13:45:06.406Z,100499.59
2022-08-14T13:47:35.830Z,100535.44
2022-08-14T13:50:10.626Z,100505.41
2022-08-14T13:52:52.614Z,100513.44
2022-08-14T13:55:31.296Z,100506.72
2022-08-14T13:58:05.255Z,100505.19
2022-08-14T14:00:53.275Z,100499.56
2022-08-14T14:03:30.288Z,100493.88
2022-08-14T14:06:01.378Z,100491.56
2022-08-14T14:08:43.630Z,100482.31
2022-08-14T14:11:18.082Z,100487.56
2022-08-14T14:13:48.249Z,100482.53
2022-08-14T14:16:26.099Z,100492.94
2022-08-14T14:19:06.912Z,100475.91
2022-08-14T14:21:40.835Z,100471.97
2022-08-14T14:24:14.653Z,100421.47
2022-08-14T14:26:47.423Z,100470.38
2022-08-14T14:29:25.975Z,100479.69
2022-08-14T14:31:59.901Z,100487.75
2022-08-14T14:34:34.004Z,100478.50
2022-08-14T14:37:05.012Z,100469.00
2022-08-14T14:39:37.897Z,100466.06
2022-08-14T14:42:32.289Z,100457.22
2022-08-14T14:45:07.641Z,100461.03
2022-08-14T14:47:38.946Z,100458.13
2022-08-14T14:50:11.130Z,100445.72
2022-08-14T14:52:41.178Z,100421.50
2022-08-14T14:55:12.657Z,100442.75
2022-08-14T14:57:52.170Z,100441.13
2022-08-14T15:00:23.410Z,100441.44
2022-08-14T15:02:57.780Z,100424.88
2022-08-14T15:05:28.733Z,100441.66
2022-08-14T15:07:57.766Z,100437.66
2022-08-14T15:10:31.030Z,100425.56
2022-08-14T15:13:04.120Z,100428.19
2022-08-14T15:15:36.857Z,100436.78
2022-08-14T15:18:36.115Z,100204.63
2022-08-14T15:20:58.137Z,100420.06
2022-08-14T15:23:44.473Z,100416.34
2022-08-14T15:26:23.873Z,100422.50
2022-08-14T15:29:02.802Z,100419.97
2022-08-14T15:31:34.743Z,100420.09
2022-08-14T15:34:45.176Z,100409.63
2022-08-14T15:37:03.115Z,100418.13
2022-08-14T15:39:34.040Z,100410.44
2022-08-14T15:42:14.905Z,100413.00
2022-08-14T15:44:58.075Z,100410.38
2022-08-14T15:47:32.345Z,100405.78
2022-08-14T15:50:08.781Z,100406.09
2022-08-14T15:52:38.315Z,100397.56
2022-08-14T15:55:13.143Z,100391.00
2022-08-14T15:58:01.689Z,100401.06
2022-08-14T16:00:51.833Z,100391.94
2022-08-14T16:03:27.025Z,100365.22
2022-08-14T16:06:10.977Z,100385.00
2022-08-14T16:08:45.862Z,100385.47
2022-08-14T16:11:16.119Z,100385.03
2022-08-14T16:13:47.673Z,100387.47
2022-08-14T16:16:49.391Z,100380.72
2022-08-14T16:19:11.238Z,100362.41
2022-08-14T16:22:02.691Z,100382.19
2022-08-14T16:25:02.602Z,100371.50
2022-08-14T16:27:39.228Z,100373.13
2022-08-14T16:30:25.025Z,100378.75
2022-08-14T16:32:57.438Z,100372.63
2022-08-14T16:35:42.922Z,100373.34
2022-08-14T16:38:46.281Z,100282.00
2022-08-14T16:41:21.882Z,100368.38
2022-08-14T16:43:59.420Z,100266.88
2022-08-14T16:46:32.778Z,100372.03
2022-08-14T16:49:01.912Z,100370.84
2022-08-14T16:51:36.285Z,100376.31
2022-08-14T16:54:33.769Z,100367.84
2022-08-14T16:57:16.253Z,100363.69
2022-08-14T16:59:52.849Z,100359.91
2022-08-14T17:02:39.720Z,100353.91
2022-08-14T17:05:24.824Z,100355.88
2022-08-14T17:08:32.311Z,100355.19
2022-08-14T17:11:11.201Z,100357.66
2022-08-14T17:13:57.854Z,100353.22
2022-08-14T17:16:37.383Z,100350.34
2022-08-14T17:19:09.648Z,100324.50
2022-08-14T17:21:46.800Z,100333.19
2022-08-14T17:24:55.769Z,100337.59
2022-08-14T17:27:09.004Z,100331.28
2022-08-14T17:29:44.645Z,100327.25
2022-08-14T17:32:29.767Z,100333.00
2022-08-14T17:35:16.613Z,100334.28
2022-08-14T17:37:55.744Z,100334.75
2022-08-14T17:40:31.030Z,100330.53
2022-08-14T17:43:01.989Z,100328.66
2022-08-14T17:45:46.880Z,100332.88
2022-08-14T17:49:14.661Z,100309.47
2022-08-14T17:51:24.143Z,100333.91
2022-08-14T17:54:02.914Z,100328.13
2022-08-14T17:56:33.910Z,100327.53
2022-08-14T17:59:06.206Z,100331.69
2022-08-14T18:01:40.794Z,100333.53
2022-08-14T18:04:24.779Z,100318.66
2022-08-14T18:07:09.289Z,100335.69
2022-08-14T18:09:56.195Z,100349.75
2022-08-14T18:12:31.849Z,100334.44
2022-08-14T18:15:14.450Z,100337.03
2022-08-14T18:17:50.614Z,100320.56
2022-08-14T18:21:39.753Z,100345.03
2022-08-14T18:23:14.556Z,100336.38
2022-08-14T18:25:51.636Z,100336.22
2022-08-14T18:28:48.598Z,100325.72
2022-08-14T18:31:42.185Z,100333.81
2022-08-14T18:34:30.986Z,100335.13
2022-08-14T18:37:14.256Z,100331.13
2022-08-14T18:39:51.698Z,100332.06
2022-08-14T18:42:45.452Z,100327.75
2022-08-14T18:45:21.061Z,100307.84
2022-08-14T18:48:50.369Z,100323.09
2022-08-14T18:51:45.359Z,100227.63
2022-08-14T18:54:33.045Z,100335.22
2022-08-14T18:57:05.421Z,100336.06
2022-08-14T18:59:42.281Z,100329.19
2022-08-14T19:02:43.422Z,100322.66
2022-08-14T19:05:13.469Z,100330.41
2022-08-14T19:07:48.124Z,100332.72
2022-08-14T19:10:37.456Z,100333.31
2022-08-14T19:13:11.763Z,100334.78
2022-08-14T19:15:45.554Z,100325.03
2022-08-14T19:18:28.212Z,100333.78
2022-08-14T19:21:01.571Z,100331.09
2022-08-14T19:23:42.035Z,100334.53
2022-08-14T19:26:35.323Z,100334.53
2022-08-14T19:29:36.266Z,100335.97
2022-08-14T19:32:36.781Z,100331.38
2022-08-14T19:35:14.965Z,100313.78
2022-08-14T19:37:52.711Z,100338.31
2022-08-14T19:40:33.991Z,100340.19
2022-08-14T19:43:06.553Z,100339.19
2022-08-14T19:45:35.620Z,100339.06
2022-08-14T19:48:14.050Z,100330.16
2022-08-14T19:50:46.179Z,100333.16
2022-08-14T19:53:18.350Z,100323.69
2022-08-14T19:56:01.838Z,100327.28
2022-08-14T19:58:54.806Z,100332.44
2022-08-14T20:01:37.351Z,100330.53
2022-08-14T20:04:45.222Z,100285.13
2022-08-14T20:07:00.104Z,100331.72
2022-08-14T20:11:07.843Z,100330.56
2022-08-14T20:12:35.354Z,100333.88
2022-08-14T20:15:21.229Z,100320.22
2022-08-14T20:17:52.780Z,100324.56
2022-08-14T20:20:30.949Z,100320.53
2022-08-14T20:23:11.489Z,100278.81
2022-08-14T20:25:56.397Z,100328.25
2022-08-14T20:28:35.333Z,100325.38
2022-08-14T20:31:17.755Z,100328.84
2022-08-14T20:34:18.741Z,100324.97
2022-08-14T20:37:04.656Z,100293.19
2022-08-14T20:39:54.852Z,100324.41
2022-08-14T20:42:43.527Z,100320.94
2022-08-14T20:45:21.705Z,100324.41
2022-08-14T20:48:01.067Z,100318.47
2022-08-14T20:50:31.918Z,100306.41
2022-08-14T20:53:05.625Z,100318.78
2022-08-14T20:55:41.721Z,100318.47
2022-08-14T20:58:43.793Z,100314.47
2022-08-14T21:01:35.879Z,100318.06
2022-08-14T21:04:22.255Z,100307.97
2022-08-14T21:07:24.629Z,100312.41
2022-08-14T21:10:05.108Z,100311.69
2022-08-14T21:12:35.758Z,100301.09
2022-08-14T21:15:11.180Z,100280.56
2022-08-14T21:17:44.024Z,100297.78
2022-08-14T21:20:21.339Z,100296.78
2022-08-14T21:23:00.352Z,100298.22
2022-08-14T21:25:32.264Z,100291.16
2022-08-14T21:28:08.590Z,100293.31
2022-08-14T21:30:57.008Z,100293.47
2022-08-14T21:33:27.904Z,100285.69
2022-08-14T21:36:07.946Z,100287.00
2022-08-14T21:38:38.088Z,100287.44
2022-08-14T21:41:42.959Z,100294.91
2022-08-14T21:44:17.925Z,100287.84
2022-08-14T21:46:53.535Z,100266.97
2022-08-14T21:49:38.277Z,100286.06
2022-08-14T21:52:51.683Z,100278.91
2022-08-14T21:55:09.415Z,100252.16
2022-08-14T21:57:56.596Z,100275.63
2022-08-14T22:00:34.794Z,100279.91
2022-08-14T22:03:06.100Z,100270.44
2022-08-14T22:05:37.051Z,100274.91
2022-08-14T22:08:07.356Z,100276.75
2022-08-14T22:10:37.069Z,100258.34
2022-08-14T22:13:05.677Z,100274.91
2022-08-14T22:15:35.559Z,100279.47
2022-08-14T22:18:05.793Z,100279.31
2022-08-14T22:20:36.348Z,100268.56
2022-08-14T22:23:11.401Z,100273.31
2022-08-14T22:25:44.018Z,100265.06
2022-08-14T22:28:19.746Z,100169.41
2022-08-14T22:30:54.931Z,100270.53
2022-08-14T22:33:30.899Z,100269.94
2022-08-14T22:36:25.068Z,100257.19
2022-08-14T22:38:54.926Z,100267.94
2022-08-14T22:41:29.608Z,100256.72
2022-08-14T22:44:08.275Z,100264.63
2022-08-14T22:46:43.298Z,100263.16
2022-08-14T22:49:16.867Z,100271.47
2022-08-14T22:52:31.993Z,100259.44
2022-08-14T22:54:55.425Z,100267.44
2022-08-14T22:57:37.886Z,100260.78
2022-08-14T23:00:16.657Z,100264.69
2022-08-14T23:02:48.166Z,100255.34
2022-08-14T23:05:40.193Z,100261.44
2022-08-14T23:08:58.739Z,100261.94
2022-08-14T23:11:12.089Z,100256.22
2022-08-14T23:13:43.442Z,100254.75
2022-08-14T23:16:19.971Z,100234.09
2022-08-14T23:18:53.657Z,100254.13
2022-08-14T23:21:28.973Z,100247.53
2022-08-14T23:24:03.062Z,100249.31
2022-08-14T23:26:48.027Z,100255.03
2022-08-14T23:29:20.335Z,100241.03
2022-08-14T23:31:50.829Z,100243.13
2022-08-14T23:34:22.702Z,100241.63
2022-08-14T23:36:57.256Z,100229.81
2022-08-14T23:39:33.232Z,100232.53
2022-08-14T23:42:09.166Z,100240.72
2022-08-14T23:44:39.759Z,100230.13
2022-08-14T23:47:27.656Z,100260.09
2022-08-14T23:50:04.237Z,100244.66
2022-08-14T23:52:56.221Z,100228.25
2022-08-14T23:55:37.541Z,100244.41
2022-08-14T23:58:29.624Z,100230.72
